sensor_id;sensor_type;location;lat;lon;timestamp;P1;durP1;ratioP1;P2;durP2;ratioP2
38111;SDS011;64011;56.312;44.048;2022-12-24T00:01:10;22.10;;;10.60;;
38111;SDS011;64011;56.312;44.048;2022-12-24T00:03:10;21.25;;;11.38;;
38111;SDS011;64011;56.312;44.048;2022-12-24T00:05:11;22.90;;;11.30;;
38111;SDS011;64011;56.312;44.048;2022-12-24T00:07:12;18.90;;;7.22;;
38111;SDS011;64011;56.312;44.048;2022-12-24T00:09:13;20.25;;;6.65;;
38111;SDS011;64011;56.312;44.048;2022-12-24T00:11:13;19.92;;;8.27;;
38111;SDS011;64011;56.312;44.048;2022-12-24T00:13:14;24.60;;;11.90;;
38111;SDS011;64011;56.312;44.048;2022-12-24T00:15:16;26.73;;;12.85;;
38111;SDS011;64011;56.312;44.048;2022-12-24T00:17:17;22.48;;;8.77;;
38111;SDS011;64011;56.312;44.048;2022-12-24T00:19:18;23.75;;;11.82;;
38111;SDS011;64011;56.312;44.048;2022-12-24T00:21:18;24.98;;;12.10;;
38111;SDS011;64011;56.312;44.048;2022-12-24T00:23:19;18.17;;;8.00;;
38111;SDS011;64011;56.312;44.048;2022-12-24T00:25:20;24.60;;;10.70;;
38111;SDS011;64011;56.312;44.048;2022-12-24T00:27:21;24.63;;;10.48;;
38111;SDS011;64011;56.312;44.048;2022-12-24T00:29:21;21.02;;;9.63;;
38111;SDS011;64011;56.312;44.048;2022-12-24T00:31:24;22.20;;;9.27;;
38111;SDS011;64011;56.312;44.048;2022-12-24T00:33:24;17.58;;;6.05;;
38111;SDS011;64011;56.312;44.048;2022-12-24T00:35:25;20.75;;;7.68;;
38111;SDS011;64011;56.312;44.048;2022-12-24T00:37:26;21.27;;;9.80;;
38111;SDS011;64011;56.312;44.048;2022-12-24T00:39:26;27.55;;;13.25;;
38111;SDS011;64011;56.312;44.048;2022-12-24T00:41:27;18.60;;;7.07;;
38111;SDS011;64011;56.312;44.048;2022-12-24T00:43:28;21.90;;;9.93;;
38111;SDS011;64011;56.312;44.048;2022-12-24T00:45:29;19.95;;;7.28;;
38111;SDS011;64011;56.312;44.048;2022-12-24T00:47:31;19.15;;;6.78;;
38111;SDS011;64011;56.312;44.048;2022-12-24T00:49:32;20.23;;;8.40;;
38111;SDS011;64011;56.312;44.048;2022-12-24T00:51:33;18.10;;;6.80;;
38111;SDS011;64011;56.312;44.048;2022-12-24T00:53:34;28.05;;;13.20;;
38111;SDS011;64011;56.312;44.048;2022-12-24T00:55:35;19.45;;;7.72;;
38111;SDS011;64011;56.312;44.048;2022-12-24T00:57:38;23.73;;;11.05;;
38111;SDS011;64011;56.312;44.048;2022-12-24T00:59:39;23.30;;;11.25;;
38111;SDS011;64011;56.312;44.048;2022-12-24T01:01:40;25.08;;;11.80;;
38111;SDS011;64011;56.312;44.048;2022-12-24T01:03:42;22.92;;;10.30;;
38111;SDS011;64011;56.312;44.048;2022-12-24T01:05:42;27.13;;;12.30;;
38111;SDS011;64011;56.312;44.048;2022-12-24T01:07:43;20.88;;;9.07;;
38111;SDS011;64011;56.312;44.048;2022-12-24T01:09:44;17.67;;;7.03;;
38111;SDS011;64011;56.312;44.048;2022-12-24T01:11:45;23.60;;;11.73;;
38111;SDS011;64011;56.312;44.048;2022-12-24T01:13:45;24.08;;;11.77;;
38111;SDS011;64011;56.312;44.048;2022-12-24T01:15:46;26.23;;;13.77;;
38111;SDS011;64011;56.312;44.048;2022-12-24T01:17:47;27.65;;;14.13;;
38111;SDS011;64011;56.312;44.048;2022-12-24T01:19:49;28.17;;;11.88;;
38111;SDS011;64011;56.312;44.048;2022-12-24T01:21:50;25.85;;;13.35;;
38111;SDS011;64011;56.312;44.048;2022-12-24T01:23:51;28.33;;;13.30;;
38111;SDS011;64011;56.312;44.048;2022-12-24T01:25:52;25.35;;;12.77;;
38111;SDS011;64011;56.312;44.048;2022-12-24T01:27:52;25.92;;;13.15;;
38111;SDS011;64011;56.312;44.048;2022-12-24T01:29:53;23.48;;;10.75;;
38111;SDS011;64011;56.312;44.048;2022-12-24T01:31:54;23.42;;;10.80;;
38111;SDS011;64011;56.312;44.048;2022-12-24T01:33:54;26.00;;;12.15;;
38111;SDS011;64011;56.312;44.048;2022-12-24T01:35:56;24.30;;;11.20;;
38111;SDS011;64011;56.312;44.048;2022-12-24T01:37:57;27.42;;;13.00;;
38111;SDS011;64011;56.312;44.048;2022-12-24T01:39:58;26.88;;;12.65;;
38111;SDS011;64011;56.312;44.048;2022-12-24T01:41:58;26.05;;;13.45;;
38111;SDS011;64011;56.312;44.048;2022-12-24T01:46:19;20.13;;;7.43;;
38111;SDS011;64011;56.312;44.048;2022-12-24T01:48:25;25.42;;;11.98;;
38111;SDS011;64011;56.312;44.048;2022-12-24T01:50:33;26.73;;;14.15;;
38111;SDS011;64011;56.312;44.048;2022-12-24T01:52:36;25.63;;;8.60;;
38111;SDS011;64011;56.312;44.048;2022-12-24T01:54:37;16.27;;;5.80;;
38111;SDS011;64011;56.312;44.048;2022-12-24T01:56:40;25.95;;;11.80;;
38111;SDS011;64011;56.312;44.048;2022-12-24T01:58:44;24.05;;;11.27;;
38111;SDS011;64011;56.312;44.048;2022-12-24T02:00:46;21.15;;;10.02;;
38111;SDS011;64011;56.312;44.048;2022-12-24T02:02:47;22.80;;;9.80;;
38111;SDS011;64011;56.312;44.048;2022-12-24T02:04:50;20.95;;;8.60;;
38111;SDS011;64011;56.312;44.048;2022-12-24T02:06:54;26.77;;;13.07;;
38111;SDS011;64011;56.312;44.048;2022-12-24T02:08:56;21.85;;;8.80;;
38111;SDS011;64011;56.312;44.048;2022-12-24T02:10:56;28.10;;;13.95;;
38111;SDS011;64011;56.312;44.048;2022-12-24T02:12:57;29.92;;;14.60;;
38111;SDS011;64011;56.312;44.048;2022-12-24T02:15:19;25.77;;;12.40;;
38111;SDS011;64011;56.312;44.048;2022-12-24T02:17:22;27.88;;;13.43;;
38111;SDS011;64011;56.312;44.048;2022-12-24T02:21:57;23.52;;;10.73;;
38111;SDS011;64011;56.312;44.048;2022-12-24T02:24:05;25.20;;;12.05;;
38111;SDS011;64011;56.312;44.048;2022-12-24T02:26:26;27.65;;;12.85;;
38111;SDS011;64011;56.312;44.048;2022-12-24T02:28:41;25.58;;;11.38;;
38111;SDS011;64011;56.312;44.048;2022-12-24T02:30:47;33.15;;;17.02;;
38111;SDS011;64011;56.312;44.048;2022-12-24T02:32:54;26.98;;;14.48;;
38111;SDS011;64011;56.312;44.048;2022-12-24T02:35:01;32.83;;;15.98;;
38111;SDS011;64011;56.312;44.048;2022-12-24T02:37:05;35.35;;;17.50;;
38111;SDS011;64011;56.312;44.048;2022-12-24T02:39:10;32.75;;;16.77;;
38111;SDS011;64011;56.312;44.048;2022-12-24T02:41:14;32.17;;;14.80;;
38111;SDS011;64011;56.312;44.048;2022-12-24T02:43:18;32.10;;;14.70;;
38111;SDS011;64011;56.312;44.048;2022-12-24T02:45:21;34.65;;;16.95;;
38111;SDS011;64011;56.312;44.048;2022-12-24T02:47:27;33.85;;;17.27;;
38111;SDS011;64011;56.312;44.048;2022-12-24T02:49:28;25.67;;;11.50;;
38111;SDS011;64011;56.312;44.048;2022-12-24T02:51:28;24.92;;;13.50;;
38111;SDS011;64011;56.312;44.048;2022-12-24T02:53:29;27.92;;;13.00;;
38111;SDS011;64011;56.312;44.048;2022-12-24T02:55:33;30.10;;;13.98;;
38111;SDS011;64011;56.312;44.048;2022-12-24T02:57:43;32.45;;;15.23;;
38111;SDS011;64011;56.312;44.048;2022-12-24T02:59:58;33.35;;;16.02;;
38111;SDS011;64011;56.312;44.048;2022-12-24T03:02:08;23.55;;;10.38;;
38111;SDS011;64011;56.312;44.048;2022-12-24T03:04:12;34.88;;;18.15;;
38111;SDS011;64011;56.312;44.048;2022-12-24T03:06:20;31.65;;;15.48;;
38111;SDS011;64011;56.312;44.048;2022-12-24T03:08:28;32.75;;;16.98;;
38111;SDS011;64011;56.312;44.048;2022-12-24T03:10:31;33.45;;;16.63;;
38111;SDS011;64011;56.312;44.048;2022-12-24T03:12:37;32.63;;;13.32;;
38111;SDS011;64011;56.312;44.048;2022-12-24T03:14:39;32.90;;;15.73;;
38111;SDS011;64011;56.312;44.048;2022-12-24T03:16:41;29.63;;;14.57;;
38111;SDS011;64011;56.312;44.048;2022-12-24T03:18:43;37.17;;;19.83;;
38111;SDS011;64011;56.312;44.048;2022-12-24T03:20:49;33.65;;;16.50;;
38111;SDS011;64011;56.312;44.048;2022-12-24T03:22:53;38.78;;;19.73;;
38111;SDS011;64011;56.312;44.048;2022-12-24T03:24:54;38.65;;;19.33;;
38111;SDS011;64011;56.312;44.048;2022-12-24T03:26:55;34.75;;;13.10;;
38111;SDS011;64011;56.312;44.048;2022-12-24T03:28:56;39.55;;;20.20;;
38111;SDS011;64011;56.312;44.048;2022-12-24T03:30:59;39.70;;;20.20;;
38111;SDS011;64011;56.312;44.048;2022-12-24T03:33:00;34.95;;;15.88;;
38111;SDS011;64011;56.312;44.048;2022-12-24T03:35:01;36.53;;;17.55;;
38111;SDS011;64011;56.312;44.048;2022-12-24T03:37:05;36.70;;;19.50;;
38111;SDS011;64011;56.312;44.048;2022-12-24T03:39:05;30.90;;;12.20;;
38111;SDS011;64011;56.312;44.048;2022-12-24T03:41:06;34.70;;;16.75;;
38111;SDS011;64011;56.312;44.048;2022-12-24T03:43:07;33.75;;;15.95;;
38111;SDS011;64011;56.312;44.048;2022-12-24T03:45:08;40.38;;;19.98;;
38111;SDS011;64011;56.312;44.048;2022-12-24T03:47:09;27.05;;;11.98;;
38111;SDS011;64011;56.312;44.048;2022-12-24T03:49:10;22.65;;;9.32;;
38111;SDS011;64011;56.312;44.048;2022-12-24T03:51:15;39.55;;;19.13;;
38111;SDS011;64011;56.312;44.048;2022-12-24T03:53:18;33.17;;;14.45;;
38111;SDS011;64011;56.312;44.048;2022-12-24T03:55:18;35.05;;;17.58;;
38111;SDS011;64011;56.312;44.048;2022-12-24T03:57:19;30.58;;;13.27;;
38111;SDS011;64011;56.312;44.048;2022-12-24T03:59:20;25.58;;;10.68;;
38111;SDS011;64011;56.312;44.048;2022-12-24T04:01:21;38.47;;;18.80;;
38111;SDS011;64011;56.312;44.048;2022-12-24T04:03:21;35.88;;;18.58;;
38111;SDS011;64011;56.312;44.048;2022-12-24T04:05:22;39.60;;;18.45;;
38111;SDS011;64011;56.312;44.048;2022-12-24T04:07:23;38.38;;;17.95;;
38111;SDS011;64011;56.312;44.048;2022-12-24T04:09:25;24.02;;;10.32;;
38111;SDS011;64011;56.312;44.048;2022-12-24T04:11:25;42.22;;;20.65;;
38111;SDS011;64011;56.312;44.048;2022-12-24T04:13:26;26.13;;;10.88;;
38111;SDS011;64011;56.312;44.048;2022-12-24T04:15:27;32.45;;;13.00;;
38111;SDS011;64011;56.312;44.048;2022-12-24T04:17:28;44.83;;;21.15;;
38111;SDS011;64011;56.312;44.048;2022-12-24T04:19:28;42.25;;;19.27;;
38111;SDS011;64011;56.312;44.048;2022-12-24T04:21:29;43.15;;;19.90;;
38111;SDS011;64011;56.312;44.048;2022-12-24T04:23:30;38.13;;;18.30;;
38111;SDS011;64011;56.312;44.048;2022-12-24T04:25:32;29.42;;;13.00;;
38111;SDS011;64011;56.312;44.048;2022-12-24T04:27:33;30.55;;;13.43;;
38111;SDS011;64011;56.312;44.048;2022-12-24T04:29:34;41.85;;;21.27;;
38111;SDS011;64011;56.312;44.048;2022-12-24T04:31:34;41.53;;;20.08;;
38111;SDS011;64011;56.312;44.048;2022-12-24T04:33:35;40.20;;;18.63;;
38111;SDS011;64011;56.312;44.048;2022-12-24T04:35:38;42.58;;;21.23;;
38111;SDS011;64011;56.312;44.048;2022-12-24T04:37:39;41.97;;;19.70;;
38111;SDS011;64011;56.312;44.048;2022-12-24T04:39:39;40.72;;;19.90;;
38111;SDS011;64011;56.312;44.048;2022-12-24T04:41:41;44.45;;;20.65;;
38111;SDS011;64011;56.312;44.048;2022-12-24T04:43:42;40.85;;;18.85;;
38111;SDS011;64011;56.312;44.048;2022-12-24T04:45:43;37.58;;;16.15;;
38111;SDS011;64011;56.312;44.048;2022-12-24T04:47:43;40.13;;;18.27;;
38111;SDS011;64011;56.312;44.048;2022-12-24T04:49:44;34.17;;;15.98;;
38111;SDS011;64011;56.312;44.048;2022-12-24T04:51:45;32.97;;;16.23;;
38111;SDS011;64011;56.312;44.048;2022-12-24T04:53:45;26.92;;;11.05;;
38111;SDS011;64011;56.312;44.048;2022-12-24T04:55:46;42.97;;;19.77;;
38111;SDS011;64011;56.312;44.048;2022-12-24T04:57:48;43.60;;;20.92;;
38111;SDS011;64011;56.312;44.048;2022-12-24T04:59:49;31.95;;;13.88;;
38111;SDS011;64011;56.312;44.048;2022-12-24T05:01:50;39.85;;;19.60;;
38111;SDS011;64011;56.312;44.048;2022-12-24T05:03:51;27.83;;;12.32;;
38111;SDS011;64011;56.312;44.048;2022-12-24T05:05:52;41.03;;;19.90;;
38111;SDS011;64011;56.312;44.048;2022-12-24T05:07:52;30.90;;;15.48;;
38111;SDS011;64011;56.312;44.048;2022-12-24T05:09:53;45.00;;;20.73;;
38111;SDS011;64011;56.312;44.048;2022-12-24T05:11:54;39.92;;;19.48;;
38111;SDS011;64011;56.312;44.048;2022-12-24T05:13:56;34.63;;;15.98;;
38111;SDS011;64011;56.312;44.048;2022-12-24T05:15:56;42.67;;;20.67;;
38111;SDS011;64011;56.312;44.048;2022-12-24T05:17:57;40.55;;;19.65;;
38111;SDS011;64011;56.312;44.048;2022-12-24T05:19:58;29.92;;;11.98;;
38111;SDS011;64011;56.312;44.048;2022-12-24T05:21:58;36.17;;;15.80;;
38111;SDS011;64011;56.312;44.048;2022-12-24T05:23:59;40.17;;;19.60;;
38111;SDS011;64011;56.312;44.048;2022-12-24T05:26:00;30.98;;;12.38;;
38111;SDS011;64011;56.312;44.048;2022-12-24T05:28:01;22.67;;;10.02;;
38111;SDS011;64011;56.312;44.048;2022-12-24T05:30:03;33.58;;;16.65;;
38111;SDS011;64011;56.312;44.048;2022-12-24T05:32:05;33.83;;;17.13;;
38111;SDS011;64011;56.312;44.048;2022-12-24T05:34:06;33.22;;;15.23;;
38111;SDS011;64011;56.312;44.048;2022-12-24T05:36:07;31.00;;;15.55;;
38111;SDS011;64011;56.312;44.048;2022-12-24T05:38:08;27.65;;;11.95;;
38111;SDS011;64011;56.312;44.048;2022-12-24T05:40:09;30.38;;;13.40;;
38111;SDS011;64011;56.312;44.048;2022-12-24T05:42:10;33.17;;;16.10;;
38111;SDS011;64011;56.312;44.048;2022-12-24T05:44:11;36.70;;;17.55;;
38111;SDS011;64011;56.312;44.048;2022-12-24T05:46:14;23.42;;;11.77;;
38111;SDS011;64011;56.312;44.048;2022-12-24T05:48:16;22.90;;;9.10;;
38111;SDS011;64011;56.312;44.048;2022-12-24T05:50:17;34.08;;;16.83;;
38111;SDS011;64011;56.312;44.048;2022-12-24T05:52:17;29.83;;;13.57;;
38111;SDS011;64011;56.312;44.048;2022-12-24T05:54:18;38.42;;;20.27;;
38111;SDS011;64011;56.312;44.048;2022-12-24T05:56:19;29.42;;;11.68;;
38111;SDS011;64011;56.312;44.048;2022-12-24T05:58:20;43.03;;;20.35;;
38111;SDS011;64011;56.312;44.048;2022-12-24T06:00:21;31.20;;;12.93;;
38111;SDS011;64011;56.312;44.048;2022-12-24T06:02:23;37.95;;;18.83;;
38111;SDS011;64011;56.312;44.048;2022-12-24T06:04:24;38.85;;;19.65;;
38111;SDS011;64011;56.312;44.048;2022-12-24T06:06:25;33.88;;;16.08;;
38111;SDS011;64011;56.312;44.048;2022-12-24T06:08:27;37.33;;;18.45;;
38111;SDS011;64011;56.312;44.048;2022-12-24T06:10:28;40.83;;;18.55;;
38111;SDS011;64011;56.312;44.048;2022-12-24T06:12:29;35.75;;;18.27;;
38111;SDS011;64011;56.312;44.048;2022-12-24T06:14:30;39.78;;;20.45;;
38111;SDS011;64011;56.312;44.048;2022-12-24T06:16:30;39.05;;;19.60;;
38111;SDS011;64011;56.312;44.048;2022-12-24T06:18:33;41.83;;;20.30;;
38111;SDS011;64011;56.312;44.048;2022-12-24T06:20:34;34.40;;;14.82;;
38111;SDS011;64011;56.312;44.048;2022-12-24T06:22:35;29.85;;;12.98;;
38111;SDS011;64011;56.312;44.048;2022-12-24T06:24:36;41.63;;;18.33;;
38111;SDS011;64011;56.312;44.048;2022-12-24T06:26:37;45.03;;;19.98;;
38111;SDS011;64011;56.312;44.048;2022-12-24T06:28:38;37.72;;;16.52;;
38111;SDS011;64011;56.312;44.048;2022-12-24T06:30:38;40.92;;;18.85;;
38111;SDS011;64011;56.312;44.048;2022-12-24T06:32:39;42.58;;;20.25;;
38111;SDS011;64011;56.312;44.048;2022-12-24T06:34:41;50.72;;;23.25;;
38111;SDS011;64011;56.312;44.048;2022-12-24T06:36:42;39.90;;;17.58;;
38111;SDS011;64011;56.312;44.048;2022-12-24T06:38:42;44.65;;;20.42;;
38111;SDS011;64011;56.312;44.048;2022-12-24T06:40:44;43.05;;;20.35;;
38111;SDS011;64011;56.312;44.048;2022-12-24T06:42:45;46.08;;;20.73;;
38111;SDS011;64011;56.312;44.048;2022-12-24T06:44:47;48.83;;;22.85;;
38111;SDS011;64011;56.312;44.048;2022-12-24T06:46:47;30.45;;;12.52;;
38111;SDS011;64011;56.312;44.048;2022-12-24T06:48:48;47.63;;;21.35;;
38111;SDS011;64011;56.312;44.048;2022-12-24T06:50:50;46.50;;;20.40;;
38111;SDS011;64011;56.312;44.048;2022-12-24T06:52:51;39.85;;;16.60;;
38111;SDS011;64011;56.312;44.048;2022-12-24T06:54:52;37.20;;;16.15;;
38111;SDS011;64011;56.312;44.048;2022-12-24T06:56:52;40.70;;;19.63;;
38111;SDS011;64011;56.312;44.048;2022-12-24T06:58:53;54.60;;;25.30;;
38111;SDS011;64011;56.312;44.048;2022-12-24T07:00:54;42.22;;;18.23;;
38111;SDS011;64011;56.312;44.048;2022-12-24T07:02:54;53.97;;;25.55;;
38111;SDS011;64011;56.312;44.048;2022-12-24T07:04:55;45.38;;;22.63;;
38111;SDS011;64011;56.312;44.048;2022-12-24T07:06:57;47.97;;;23.65;;
38111;SDS011;64011;56.312;44.048;2022-12-24T07:08:58;51.45;;;25.08;;
38111;SDS011;64011;56.312;44.048;2022-12-24T07:10:59;50.30;;;23.67;;
38111;SDS011;64011;56.312;44.048;2022-12-24T07:12:59;39.95;;;17.73;;
38111;SDS011;64011;56.312;44.048;2022-12-24T07:15:00;47.92;;;24.50;;
38111;SDS011;64011;56.312;44.048;2022-12-24T07:17:01;54.35;;;23.98;;
38111;SDS011;64011;56.312;44.048;2022-12-24T07:19:02;44.65;;;19.80;;
38111;SDS011;64011;56.312;44.048;2022-12-24T07:21:03;34.45;;;14.15;;
38111;SDS011;64011;56.312;44.048;2022-12-24T07:23:07;45.60;;;19.98;;
38111;SDS011;64011;56.312;44.048;2022-12-24T07:25:08;55.58;;;25.85;;
38111;SDS011;64011;56.312;44.048;2022-12-24T07:27:09;53.05;;;24.05;;
38111;SDS011;64011;56.312;44.048;2022-12-24T07:29:10;44.30;;;18.20;;
38111;SDS011;64011;56.312;44.048;2022-12-24T07:31:10;56.22;;;25.50;;
38111;SDS011;64011;56.312;44.048;2022-12-24T07:33:11;59.47;;;27.40;;
38111;SDS011;64011;56.312;44.048;2022-12-24T07:35:12;43.90;;;18.63;;
38111;SDS011;64011;56.312;44.048;2022-12-24T07:37:12;51.63;;;23.17;;
38111;SDS011;64011;56.312;44.048;2022-12-24T07:39:14;53.65;;;25.33;;
38111;SDS011;64011;56.312;44.048;2022-12-24T07:41:15;66.10;;;28.40;;
38111;SDS011;64011;56.312;44.048;2022-12-24T07:43:16;60.22;;;28.60;;
38111;SDS011;64011;56.312;44.048;2022-12-24T07:45:17;61.35;;;25.15;;
38111;SDS011;64011;56.312;44.048;2022-12-24T07:47:17;54.25;;;26.90;;
38111;SDS011;64011;56.312;44.048;2022-12-24T07:49:18;49.47;;;21.17;;
38111;SDS011;64011;56.312;44.048;2022-12-24T07:51:19;50.45;;;22.98;;
38111;SDS011;64011;56.312;44.048;2022-12-24T07:53:20;53.83;;;24.05;;
38111;SDS011;64011;56.312;44.048;2022-12-24T07:55:22;61.55;;;27.63;;
38111;SDS011;64011;56.312;44.048;2022-12-24T07:57:23;64.35;;;28.95;;
38111;SDS011;64011;56.312;44.048;2022-12-24T07:59:23;58.33;;;27.33;;
38111;SDS011;64011;56.312;44.048;2022-12-24T08:01:24;68.13;;;28.77;;
38111;SDS011;64011;56.312;44.048;2022-12-24T08:03:25;45.10;;;20.50;;
38111;SDS011;64011;56.312;44.048;2022-12-24T08:05:26;63.50;;;27.08;;
38111;SDS011;64011;56.312;44.048;2022-12-24T08:07:27;58.55;;;27.40;;
38111;SDS011;64011;56.312;44.048;2022-12-24T08:09:29;65.25;;;30.38;;
38111;SDS011;64011;56.312;44.048;2022-12-24T08:11:32;62.72;;;27.67;;
38111;SDS011;64011;56.312;44.048;2022-12-24T08:13:32;69.55;;;31.83;;
38111;SDS011;64011;56.312;44.048;2022-12-24T08:15:33;66.50;;;28.80;;
38111;SDS011;64011;56.312;44.048;2022-12-24T08:17:34;70.80;;;32.42;;
38111;SDS011;64011;56.312;44.048;2022-12-24T08:19:35;69.90;;;29.27;;
38111;SDS011;64011;56.312;44.048;2022-12-24T08:21:36;61.53;;;27.83;;
38111;SDS011;64011;56.312;44.048;2022-12-24T08:23:36;67.38;;;29.10;;
38111;SDS011;64011;56.312;44.048;2022-12-24T08:25:40;64.50;;;27.17;;
38111;SDS011;64011;56.312;44.048;2022-12-24T08:27:42;59.30;;;25.25;;
38111;SDS011;64011;56.312;44.048;2022-12-24T08:29:43;58.25;;;24.80;;
38111;SDS011;64011;56.312;44.048;2022-12-24T08:31:44;61.75;;;27.83;;
38111;SDS011;64011;56.312;44.048;2022-12-24T08:33:45;68.75;;;31.25;;
38111;SDS011;64011;56.312;44.048;2022-12-24T08:35:46;63.92;;;28.80;;
38111;SDS011;64011;56.312;44.048;2022-12-24T08:37:47;75.25;;;31.23;;
38111;SDS011;64011;56.312;44.048;2022-12-24T08:39:48;71.82;;;30.98;;
38111;SDS011;64011;56.312;44.048;2022-12-24T08:41:48;72.13;;;31.00;;
38111;SDS011;64011;56.312;44.048;2022-12-24T08:43:51;74.30;;;32.95;;
38111;SDS011;64011;56.312;44.048;2022-12-24T08:45:51;75.47;;;33.55;;
38111;SDS011;64011;56.312;44.048;2022-12-24T08:47:52;63.55;;;28.25;;
38111;SDS011;64011;56.312;44.048;2022-12-24T08:49:53;62.80;;;27.45;;
38111;SDS011;64011;56.312;44.048;2022-12-24T08:51:53;65.68;;;28.45;;
38111;SDS011;64011;56.312;44.048;2022-12-24T08:53:54;72.70;;;27.63;;
38111;SDS011;64011;56.312;44.048;2022-12-24T08:55:59;71.85;;;28.10;;
38111;SDS011;64011;56.312;44.048;2022-12-24T08:58:01;56.15;;;23.65;;
38111;SDS011;64011;56.312;44.048;2022-12-24T09:00:04;59.08;;;24.30;;
38111;SDS011;64011;56.312;44.048;2022-12-24T09:02:07;56.75;;;23.73;;
38111;SDS011;64011;56.312;44.048;2022-12-24T09:04:08;65.55;;;27.05;;
38111;SDS011;64011;56.312;44.048;2022-12-24T09:06:09;71.75;;;29.60;;
38111;SDS011;64011;56.312;44.048;2022-12-24T09:08:10;70.75;;;27.27;;
38111;SDS011;64011;56.312;44.048;2022-12-24T09:10:10;66.25;;;27.00;;
38111;SDS011;64011;56.312;44.048;2022-12-24T09:12:12;65.38;;;25.65;;
38111;SDS011;64011;56.312;44.048;2022-12-24T09:14:13;44.65;;;17.65;;
38111;SDS011;64011;56.312;44.048;2022-12-24T09:16:15;72.47;;;30.33;;
38111;SDS011;64011;56.312;44.048;2022-12-24T09:18:16;60.70;;;27.15;;
38111;SDS011;64011;56.312;44.048;2022-12-24T09:20:17;74.10;;;31.42;;
38111;SDS011;64011;56.312;44.048;2022-12-24T09:22:18;79.18;;;33.70;;
38111;SDS011;64011;56.312;44.048;2022-12-24T09:24:18;85.10;;;32.67;;
38111;SDS011;64011;56.312;44.048;2022-12-24T09:26:20;62.10;;;27.48;;
38111;SDS011;64011;56.312;44.048;2022-12-24T09:28:22;53.80;;;20.38;;
38111;SDS011;64011;56.312;44.048;2022-12-24T09:30:23;65.45;;;29.13;;
38111;SDS011;64011;56.312;44.048;2022-12-24T09:32:25;59.22;;;24.05;;
38111;SDS011;64011;56.312;44.048;2022-12-24T09:34:25;67.13;;;29.20;;
38111;SDS011;64011;56.312;44.048;2022-12-24T09:36:26;61.85;;;27.55;;
38111;SDS011;64011;56.312;44.048;2022-12-24T09:38:27;49.47;;;22.48;;
38111;SDS011;64011;56.312;44.048;2022-12-24T09:40:30;68.47;;;28.90;;
38111;SDS011;64011;56.312;44.048;2022-12-24T09:42:36;60.08;;;26.13;;
38111;SDS011;64011;56.312;44.048;2022-12-24T09:44:42;60.10;;;28.50;;
38111;SDS011;64011;56.312;44.048;2022-12-24T09:46:44;62.85;;;28.13;;
38111;SDS011;64011;56.312;44.048;2022-12-24T09:48:49;55.90;;;24.63;;
38111;SDS011;64011;56.312;44.048;2022-12-24T09:50:52;56.30;;;24.50;;
38111;SDS011;64011;56.312;44.048;2022-12-24T09:52:54;58.72;;;24.52;;
38111;SDS011;64011;56.312;44.048;2022-12-24T09:54:57;57.45;;;23.52;;
38111;SDS011;64011;56.312;44.048;2022-12-24T09:57:05;59.65;;;26.13;;
38111;SDS011;64011;56.312;44.048;2022-12-24T09:59:09;56.65;;;25.15;;
38111;SDS011;64011;56.312;44.048;2022-12-24T10:01:11;39.88;;;17.33;;
38111;SDS011;64011;56.312;44.048;2022-12-24T10:03:13;58.50;;;23.42;;
38111;SDS011;64011;56.312;44.048;2022-12-24T10:05:16;54.67;;;24.65;;
38111;SDS011;64011;56.312;44.048;2022-12-24T10:07:21;53.83;;;22.70;;
38111;SDS011;64011;56.312;44.048;2022-12-24T10:09:32;60.65;;;26.58;;
38111;SDS011;64011;56.312;44.048;2022-12-24T10:11:37;59.33;;;25.55;;
38111;SDS011;64011;56.312;44.048;2022-12-24T10:13:46;65.00;;;26.35;;
38111;SDS011;64011;56.312;44.048;2022-12-24T10:15:58;56.28;;;25.02;;
38111;SDS011;64011;56.312;44.048;2022-12-24T10:18:06;55.15;;;21.25;;
38111;SDS011;64011;56.312;44.048;2022-12-24T10:20:23;60.55;;;24.02;;
38111;SDS011;64011;56.312;44.048;2022-12-24T10:22:36;43.22;;;19.25;;
38111;SDS011;64011;56.312;44.048;2022-12-24T10:24:42;27.80;;;10.98;;
38111;SDS011;64011;56.312;44.048;2022-12-24T10:26:47;51.38;;;20.80;;
38111;SDS011;64011;56.312;44.048;2022-12-24T10:28:51;46.63;;;20.15;;
38111;SDS011;64011;56.312;44.048;2022-12-24T10:30:56;36.10;;;14.82;;
38111;SDS011;64011;56.312;44.048;2022-12-24T10:32:59;46.60;;;17.77;;
38111;SDS011;64011;56.312;44.048;2022-12-24T10:35:03;55.35;;;24.20;;
38111;SDS011;64011;56.312;44.048;2022-12-24T10:37:13;35.33;;;13.45;;
38111;SDS011;64011;56.312;44.048;2022-12-24T10:39:18;52.15;;;21.02;;
38111;SDS011;64011;56.312;44.048;2022-12-24T10:41:20;52.35;;;22.27;;
38111;SDS011;64011;56.312;44.048;2022-12-24T10:43:22;48.70;;;20.42;;
38111;SDS011;64011;56.312;44.048;2022-12-24T10:45:24;53.58;;;23.92;;
38111;SDS011;64011;56.312;44.048;2022-12-24T10:47:27;44.88;;;19.55;;
38111;SDS011;64011;56.312;44.048;2022-12-24T10:49:31;32.90;;;13.32;;
38111;SDS011;64011;56.312;44.048;2022-12-24T10:51:36;36.92;;;14.98;;
38111;SDS011;64011;56.312;44.048;2022-12-24T10:53:43;42.42;;;17.30;;
38111;SDS011;64011;56.312;44.048;2022-12-24T10:55:46;42.05;;;17.40;;
38111;SDS011;64011;56.312;44.048;2022-12-24T10:57:55;50.47;;;21.55;;
38111;SDS011;64011;56.312;44.048;2022-12-24T10:59:58;43.97;;;19.55;;
38111;SDS011;64011;56.312;44.048;2022-12-24T11:01:59;45.42;;;19.10;;
38111;SDS011;64011;56.312;44.048;2022-12-24T11:04:00;54.10;;;23.80;;
38111;SDS011;64011;56.312;44.048;2022-12-24T11:06:06;54.17;;;25.42;;
38111;SDS011;64011;56.312;44.048;2022-12-24T11:08:13;63.88;;;25.05;;
38111;SDS011;64011;56.312;44.048;2022-12-24T11:10:22;53.25;;;20.90;;
38111;SDS011;64011;56.312;44.048;2022-12-24T11:12:24;33.85;;;13.00;;
38111;SDS011;64011;56.312;44.048;2022-12-24T11:14:26;44.13;;;19.10;;
38111;SDS011;64011;56.312;44.048;2022-12-24T11:16:33;49.65;;;18.10;;
38111;SDS011;64011;56.312;44.048;2022-12-24T11:18:35;50.08;;;18.23;;
38111;SDS011;64011;56.312;44.048;2022-12-24T11:20:37;52.88;;;21.60;;
38111;SDS011;64011;56.312;44.048;2022-12-24T11:22:37;46.65;;;18.40;;
38111;SDS011;64011;56.312;44.048;2022-12-24T11:24:38;39.20;;;15.70;;
38111;SDS011;64011;56.312;44.048;2022-12-24T11:26:41;48.08;;;19.13;;
38111;SDS011;64011;56.312;44.048;2022-12-24T11:28:42;49.33;;;17.95;;
38111;SDS011;64011;56.312;44.048;2022-12-24T11:30:43;43.88;;;17.45;;
38111;SDS011;64011;56.312;44.048;2022-12-24T11:33:14;57.90;;;23.35;;
38111;SDS011;64011;56.312;44.048;2022-12-24T11:35:17;50.22;;;17.58;;
38111;SDS011;64011;56.312;44.048;2022-12-24T11:37:20;62.08;;;23.23;;
38111;SDS011;64011;56.312;44.048;2022-12-24T11:39:22;45.97;;;19.02;;
38111;SDS011;64011;56.312;44.048;2022-12-24T11:41:24;54.78;;;24.80;;
38111;SDS011;64011;56.312;44.048;2022-12-24T11:43:27;55.25;;;23.33;;
38111;SDS011;64011;56.312;44.048;2022-12-24T11:45:37;56.17;;;24.65;;
38111;SDS011;64011;56.312;44.048;2022-12-24T11:47:38;43.70;;;17.85;;
38111;SDS011;64011;56.312;44.048;2022-12-24T11:49:39;37.67;;;15.85;;
38111;SDS011;64011;56.312;44.048;2022-12-24T11:51:44;39.28;;;17.02;;